Huntington, TX

10:59 AM CST on February 06, 2016 (GMT -0600)
Huntington, Texas | | Change Station
CLOSE
Current Station
Personal Weather Station
Location: Huntington, TX
Elevation: 274 ft
Nearby Weather Stations

Elev 274 ft 31.29 °N, 94.61 °W | Updated 14 minutes ago

Overcast
Overcast
48.1 °F
Feels Like 48 °F
N
1.0
Wind Variable Wind from SE
Gusts 3.0 mph

Today
High -- | Low -- °F
--% Chance of Precip.
Yesterday
High -- | Low -- °F
Precip. -- in
Pressure 30.32 in
Visibility 10.0 miles
Clouds Overcast 2500 ft
Windchill 48 °F
Dew Point 44 °F
Humidity 84%
Rainfall 0.15 in
Snow Depth Not available.
7:07 AM 5:57 PM
Waning Crescent, 5% visible
METAR KLFK 061653Z AUTO 14005KT 10SM OVC025 08/05 A3032 RMK AO2 SLP268 T00830050
Pressure 30.32 in
Visibility 10.0 miles
Clouds Overcast 2500 ft
Windchill 48 °F
Dew Point 44 °F
Humidity 84%
Rainfall 0.15 in
Snow Depth Not available.
7:07 AM 5:57 PM
Waning Crescent, 5% visible
METAR KLFK 061653Z AUTO 14005KT 10SM OVC025 08/05 A3032 RMK AO2 SLP268 T00830050

10-Day Weather Forecast

Almanac

Astronomy

Feb. 06, 2016 Rise Set
Actual Time
Civil Twilight
Nautical Twilight
Astronomical Twilight
Moon
Length of Visible Light
Length of Day
Tomorrow will be .
, % of the Moon is Illuminated

Today's Extremes

State Highs State Lows

Community

WunderPhotos

Upload Photos

1,891,017 photos uploaded!

WunderBlog® & News

Nearby

Air Quality

  Air Quality AQ Index Pollutant
Not available.

Snow Depth

Station Depth Elevation

Earthquake Activity

City Distance Mag. Time & Date
Minimum magnitude displayed is 2.5.

Coastal Water Temperatures

Place Temperature

Stations

Nearby Weather Stations

Station Location Temp. Windchill Dew Point Humidity Wind Precip. Elev Updated Type
                   

Watches & Warnings

There are currently no watches in effect.